sensor_id;sensor_type;location;lat;lon;timestamp;temperature;humidity
21417;DHT22;10869;52.238;10.716;2022-08-19T04:49:51;18.30;99.90
21417;DHT22;10869;52.238;10.716;2022-08-19T04:52:17;18.30;99.90
21417;DHT22;10869;52.238;10.716;2022-08-19T04:58:07;18.20;99.90
21417;DHT22;10869;52.238;10.716;2022-08-19T05:00:33;18.20;99.90
21417;DHT22;10869;52.238;10.716;2022-08-19T05:06:22;18.20;99.90
21417;DHT22;10869;52.238;10.716;2022-08-19T05:12:11;18.00;99.90
21417;DHT22;10869;52.238;10.716;2022-08-19T05:17:59;17.90;99.90
21417;DHT22;10869;52.238;10.716;2022-08-19T05:28:32;18.00;99.90
21417;DHT22;10869;52.238;10.716;2022-08-19T05:50:19;17.80;99.90
21417;DHT22;10869;52.238;10.716;2022-08-19T05:56:23;17.80;99.90
21417;DHT22;10869;52.238;10.716;2022-08-19T06:40:14;17.80;99.90
21417;DHT22;10869;52.238;10.716;2022-08-19T06:46:08;17.80;99.90
21417;DHT22;10869;52.238;10.716;2022-08-19T06:51:58;17.80;99.90
21417;DHT22;10869;52.238;10.716;2022-08-19T06:54:25;17.70;99.90
21417;DHT22;10869;52.238;10.716;2022-08-19T07:00:13;17.70;99.90
21417;DHT22;10869;52.238;10.716;2022-08-19T07:02:41;17.70;99.90
21417;DHT22;10869;52.238;10.716;2022-08-19T07:05:07;17.70;99.90
21417;DHT22;10869;52.238;10.716;2022-08-19T07:07:33;17.70;99.90
21417;DHT22;10869;52.238;10.716;2022-08-19T07:13:22;17.70;99.90
21417;DHT22;10869;52.238;10.716;2022-08-19T07:15:48;17.70;99.90
21417;DHT22;10869;52.238;10.716;2022-08-19T07:18:17;17.70;99.90
21417;DHT22;10869;52.238;10.716;2022-08-19T07:24:05;17.70;99.90
21417;DHT22;10869;52.238;10.716;2022-08-19T07:29:53;17.70;99.90
21417;DHT22;10869;52.238;10.716;2022-08-19T07:35:41;17.70;99.90
21417;DHT22;10869;52.238;10.716;2022-08-19T07:38:07;17.70;99.90
21417;DHT22;10869;52.238;10.716;2022-08-19T07:40:32;17.80;99.90
21417;DHT22;10869;52.238;10.716;2022-08-19T07:42:58;17.70;99.90
21417;DHT22;10869;52.238;10.716;2022-08-19T07:45:24;17.80;99.90
21417;DHT22;10869;52.238;10.716;2022-08-19T07:47:50;17.80;99.90
21417;DHT22;10869;52.238;10.716;2022-08-19T07:50:17;17.90;99.90
21417;DHT22;10869;52.238;10.716;2022-08-19T07:52:44;17.90;99.90
21417;DHT22;10869;52.238;10.716;2022-08-19T07:55:12;17.90;99.90
21417;DHT22;10869;52.238;10.716;2022-08-19T08:06:11;17.90;99.90
21417;DHT22;10869;52.238;10.716;2022-08-19T08:08:56;17.90;99.90
21417;DHT22;10869;52.238;10.716;2022-08-19T08:11:42;17.90;99.90
21417;DHT22;10869;52.238;10.716;2022-08-19T08:14:11;17.90;99.90
21417;DHT22;10869;52.238;10.716;2022-08-19T08:16:38;17.90;99.90
21417;DHT22;10869;52.238;10.716;2022-08-19T08:19:05;17.90;99.90
21417;DHT22;10869;52.238;10.716;2022-08-19T08:21:32;17.90;99.90
21417;DHT22;10869;52.238;10.716;2022-08-19T08:23:58;17.90;99.90
21417;DHT22;10869;52.238;10.716;2022-08-19T08:26:24;17.90;99.90
21417;DHT22;10869;52.238;10.716;2022-08-19T08:32:12;18.00;99.90
21417;DHT22;10869;52.238;10.716;2022-08-19T08:34:38;18.00;99.90
21417;DHT22;10869;52.238;10.716;2022-08-19T08:37:04;18.00;99.90
21417;DHT22;10869;52.238;10.716;2022-08-19T08:39:29;18.00;99.90
21417;DHT22;10869;52.238;10.716;2022-08-19T08:42:15;18.00;99.90
21417;DHT22;10869;52.238;10.716;2022-08-19T08:44:58;18.00;99.90
21417;DHT22;10869;52.238;10.716;2022-08-19T08:47:25;18.00;99.90
21417;DHT22;10869;52.238;10.716;2022-08-19T08:49:59;18.10;99.90
21417;DHT22;10869;52.238;10.716;2022-08-19T08:52:36;18.10;99.90
21417;DHT22;10869;52.238;10.716;2022-08-19T08:55:13;18.20;99.90
21417;DHT22;10869;52.238;10.716;2022-08-19T09:01:02;18.30;99.90
21417;DHT22;10869;52.238;10.716;2022-08-19T09:03:53;18.30;99.90
21417;DHT22;10869;52.238;10.716;2022-08-19T09:17:00;18.50;99.90
21417;DHT22;10869;52.238;10.716;2022-08-19T09:19:29;18.50;99.90
21417;DHT22;10869;52.238;10.716;2022-08-19T09:21:55;18.50;99.90
21417;DHT22;10869;52.238;10.716;2022-08-19T09:24:21;18.60;99.90
21417;DHT22;10869;52.238;10.716;2022-08-19T09:26:47;18.60;99.90
21417;DHT22;10869;52.238;10.716;2022-08-19T09:29:13;18.70;99.90
21417;DHT22;10869;52.238;10.716;2022-08-19T09:31:38;18.70;99.90
21417;DHT22;10869;52.238;10.716;2022-08-19T09:34:04;18.70;99.90
21417;DHT22;10869;52.238;10.716;2022-08-19T09:36:31;18.70;99.90
21417;DHT22;10869;52.238;10.716;2022-08-19T09:39:05;18.70;99.90
21417;DHT22;10869;52.238;10.716;2022-08-19T09:41:31;18.70;99.90
21417;DHT22;10869;52.238;10.716;2022-08-19T09:44:00;18.70;99.90
21417;DHT22;10869;52.238;10.716;2022-08-19T09:46:28;18.70;99.90
21417;DHT22;10869;52.238;10.716;2022-08-19T09:49:00;18.70;99.90
21417;DHT22;10869;52.238;10.716;2022-08-19T09:54:47;18.70;99.90
21417;DHT22;10869;52.238;10.716;2022-08-19T09:57:17;18.70;99.90
21417;DHT22;10869;52.238;10.716;2022-08-19T09:59:42;18.70;99.90
21417;DHT22;10869;52.238;10.716;2022-08-19T10:02:09;18.70;99.90
21417;DHT22;10869;52.238;10.716;2022-08-19T10:04:36;18.70;99.90
21417;DHT22;10869;52.238;10.716;2022-08-19T10:07:20;18.70;99.90
21417;DHT22;10869;52.238;10.716;2022-08-19T10:09:45;18.80;99.90
21417;DHT22;10869;52.238;10.716;2022-08-19T10:12:12;18.90;99.90
21417;DHT22;10869;52.238;10.716;2022-08-19T10:14:42;18.90;99.90
21417;DHT22;10869;52.238;10.716;2022-08-19T10:17:11;19.00;99.90
21417;DHT22;10869;52.238;10.716;2022-08-19T10:19:37;19.00;99.90
21417;DHT22;10869;52.238;10.716;2022-08-19T10:22:04;19.00;99.90
21417;DHT22;10869;52.238;10.716;2022-08-19T10:24:31;19.10;99.90
21417;DHT22;10869;52.238;10.716;2022-08-19T10:26:57;19.10;99.90
21417;DHT22;10869;52.238;10.716;2022-08-19T10:29:23;19.20;99.90
21417;DHT22;10869;52.238;10.716;2022-08-19T10:35:12;19.20;99.90
21417;DHT22;10869;52.238;10.716;2022-08-19T10:37:38;19.20;99.90
21417;DHT22;10869;52.238;10.716;2022-08-19T10:40:07;19.20;99.90
21417;DHT22;10869;52.238;10.716;2022-08-19T10:42:34;19.20;99.90
21417;DHT22;10869;52.238;10.716;2022-08-19T10:45:00;19.20;99.90
21417;DHT22;10869;52.238;10.716;2022-08-19T10:50:48;19.30;99.90
21417;DHT22;10869;52.238;10.716;2022-08-19T10:56:54;19.60;99.90
21417;DHT22;10869;52.238;10.716;2022-08-19T11:02:43;20.00;99.90
21417;DHT22;10869;52.238;10.716;2022-08-19T11:05:08;20.10;99.90
21417;DHT22;10869;52.238;10.716;2022-08-19T11:11:01;20.20;99.90
21417;DHT22;10869;52.238;10.716;2022-08-19T11:13:29;20.20;99.90
21417;DHT22;10869;52.238;10.716;2022-08-19T11:16:01;20.20;99.90
21417;DHT22;10869;52.238;10.716;2022-08-19T11:18:27;20.30;99.90
21417;DHT22;10869;52.238;10.716;2022-08-19T11:21:08;20.50;99.90
21417;DHT22;10869;52.238;10.716;2022-08-19T11:23:34;20.70;99.90
21417;DHT22;10869;52.238;10.716;2022-08-19T11:26:00;21.00;99.90
21417;DHT22;10869;52.238;10.716;2022-08-19T11:28:27;21.20;99.90
21417;DHT22;10869;52.238;10.716;2022-08-19T11:30:53;21.30;99.90
21417;DHT22;10869;52.238;10.716;2022-08-19T11:33:19;21.40;99.90
21417;DHT22;10869;52.238;10.716;2022-08-19T11:35:45;21.60;99.90
21417;DHT22;10869;52.238;10.716;2022-08-19T11:38:11;21.60;99.90
21417;DHT22;10869;52.238;10.716;2022-08-19T11:40:37;21.50;99.90
21417;DHT22;10869;52.238;10.716;2022-08-19T11:43:03;21.50;99.90
21417;DHT22;10869;52.238;10.716;2022-08-19T11:45:30;21.60;99.90
21417;DHT22;10869;52.238;10.716;2022-08-19T11:47:56;21.60;99.90
21417;DHT22;10869;52.238;10.716;2022-08-19T11:50:23;21.60;99.90
21417;DHT22;10869;52.238;10.716;2022-08-19T11:52:49;22.00;99.90
21417;DHT22;10869;52.238;10.716;2022-08-19T11:55:15;22.30;99.90
21417;DHT22;10869;52.238;10.716;2022-08-19T11:57:41;22.20;99.90
21417;DHT22;10869;52.238;10.716;2022-08-19T12:00:09;22.20;99.90
21417;DHT22;10869;52.238;10.716;2022-08-19T12:02:37;22.20;99.90
21417;DHT22;10869;52.238;10.716;2022-08-19T12:05:03;22.70;99.90
21417;DHT22;10869;52.238;10.716;2022-08-19T12:07:30;22.80;99.90
21417;DHT22;10869;52.238;10.716;2022-08-19T12:10:00;22.80;99.90
21417;DHT22;10869;52.238;10.716;2022-08-19T12:12:26;23.10;99.90
21417;DHT22;10869;52.238;10.716;2022-08-19T12:14:53;23.10;99.90
21417;DHT22;10869;52.238;10.716;2022-08-19T12:17:23;23.00;99.90
21417;DHT22;10869;52.238;10.716;2022-08-19T12:19:50;22.90;99.90
21417;DHT22;10869;52.238;10.716;2022-08-19T12:22:16;22.80;99.90
21417;DHT22;10869;52.238;10.716;2022-08-19T12:24:41;22.70;99.90
21417;DHT22;10869;52.238;10.716;2022-08-19T12:29:43;22.50;99.90
21417;DHT22;10869;52.238;10.716;2022-08-19T12:32:11;22.70;99.90
21417;DHT22;10869;52.238;10.716;2022-08-19T12:34:38;23.10;99.90
21417;DHT22;10869;52.238;10.716;2022-08-19T12:37:06;23.50;99.90
21417;DHT22;10869;52.238;10.716;2022-08-19T12:39:37;24.00;99.90
21417;DHT22;10869;52.238;10.716;2022-08-19T12:42:04;24.10;99.90
21417;DHT22;10869;52.238;10.716;2022-08-19T12:44:29;24.00;99.90
21417;DHT22;10869;52.238;10.716;2022-08-19T12:46:57;24.00;99.90
21417;DHT22;10869;52.238;10.716;2022-08-19T12:49:23;24.00;99.90
21417;DHT22;10869;52.238;10.716;2022-08-19T12:51:50;23.80;99.90
21417;DHT22;10869;52.238;10.716;2022-08-19T12:54:16;23.60;99.90
21417;DHT22;10869;52.238;10.716;2022-08-19T12:56:41;23.60;99.90
21417;DHT22;10869;52.238;10.716;2022-08-19T12:59:08;23.90;99.90
21417;DHT22;10869;52.238;10.716;2022-08-19T13:01:34;24.10;99.90
21417;DHT22;10869;52.238;10.716;2022-08-19T13:04:00;24.30;99.90
21417;DHT22;10869;52.238;10.716;2022-08-19T13:06:26;24.60;99.90
21417;DHT22;10869;52.238;10.716;2022-08-19T13:08:52;24.80;99.90
21417;DHT22;10869;52.238;10.716;2022-08-19T13:11:20;24.70;99.90
21417;DHT22;10869;52.238;10.716;2022-08-19T13:13:48;24.50;99.90
21417;DHT22;10869;52.238;10.716;2022-08-19T13:16:16;24.20;99.90
21417;DHT22;10869;52.238;10.716;2022-08-19T13:18:45;23.90;99.90
21417;DHT22;10869;52.238;10.716;2022-08-19T13:21:15;23.90;99.90
21417;DHT22;10869;52.238;10.716;2022-08-19T13:23:41;23.70;99.90
21417;DHT22;10869;52.238;10.716;2022-08-19T13:26:08;23.70;99.90
21417;DHT22;10869;52.238;10.716;2022-08-19T13:28:34;23.60;99.90
21417;DHT22;10869;52.238;10.716;2022-08-19T13:31:21;23.70;99.90
21417;DHT22;10869;52.238;10.716;2022-08-19T13:34:06;23.60;99.90
21417;DHT22;10869;52.238;10.716;2022-08-19T13:36:33;23.70;99.90
21417;DHT22;10869;52.238;10.716;2022-08-19T13:41:35;23.70;99.90
21417;DHT22;10869;52.238;10.716;2022-08-19T13:44:04;23.90;99.90
21417;DHT22;10869;52.238;10.716;2022-08-19T13:46:32;24.00;99.90
21417;DHT22;10869;52.238;10.716;2022-08-19T13:48:57;24.20;99.90
21417;DHT22;10869;52.238;10.716;2022-08-19T13:51:23;24.50;99.90
21417;DHT22;10869;52.238;10.716;2022-08-19T13:53:49;24.60;99.90
21417;DHT22;10869;52.238;10.716;2022-08-19T13:56:18;24.80;99.90
21417;DHT22;10869;52.238;10.716;2022-08-19T13:58:45;24.90;99.90
21417;DHT22;10869;52.238;10.716;2022-08-19T14:01:11;25.10;99.90
21417;DHT22;10869;52.238;10.716;2022-08-19T14:03:38;25.20;99.90
21417;DHT22;10869;52.238;10.716;2022-08-19T14:06:04;25.20;99.90
21417;DHT22;10869;52.238;10.716;2022-08-19T14:08:30;25.10;99.90
21417;DHT22;10869;52.238;10.716;2022-08-19T14:10:58;25.20;99.90
21417;DHT22;10869;52.238;10.716;2022-08-19T14:13:24;25.10;99.90
21417;DHT22;10869;52.238;10.716;2022-08-19T14:15:50;24.80;99.90
21417;DHT22;10869;52.238;10.716;2022-08-19T14:18:18;24.90;99.90
21417;DHT22;10869;52.238;10.716;2022-08-19T14:20:44;25.00;99.90
21417;DHT22;10869;52.238;10.716;2022-08-19T14:23:10;25.00;99.90
21417;DHT22;10869;52.238;10.716;2022-08-19T14:25:39;24.90;99.90
21417;DHT22;10869;52.238;10.716;2022-08-19T14:28:05;24.80;99.90
21417;DHT22;10869;52.238;10.716;2022-08-19T14:30:33;24.60;99.90
21417;DHT22;10869;52.238;10.716;2022-08-19T14:33:01;24.60;99.90
21417;DHT22;10869;52.238;10.716;2022-08-19T14:35:28;24.70;99.90
21417;DHT22;10869;52.238;10.716;2022-08-19T14:37:55;24.60;99.90
21417;DHT22;10869;52.238;10.716;2022-08-19T14:40:24;24.60;99.90
21417;DHT22;10869;52.238;10.716;2022-08-19T14:42:54;24.40;99.90
21417;DHT22;10869;52.238;10.716;2022-08-19T14:45:26;24.30;99.90
21417;DHT22;10869;52.238;10.716;2022-08-19T14:47:52;24.30;99.90
21417;DHT22;10869;52.238;10.716;2022-08-19T14:50:19;24.30;99.90
21417;DHT22;10869;52.238;10.716;2022-08-19T14:52:49;24.40;99.90
21417;DHT22;10869;52.238;10.716;2022-08-19T14:55:16;24.60;99.90
21417;DHT22;10869;52.238;10.716;2022-08-19T14:57:43;24.70;99.90
21417;DHT22;10869;52.238;10.716;2022-08-19T15:00:10;24.80;99.90
21417;DHT22;10869;52.238;10.716;2022-08-19T15:06:03;24.80;99.90
21417;DHT22;10869;52.238;10.716;2022-08-19T15:11:09;24.80;99.90
21417;DHT22;10869;52.238;10.716;2022-08-19T15:13:35;24.80;99.90
21417;DHT22;10869;52.238;10.716;2022-08-19T15:16:01;24.90;99.90
21417;DHT22;10869;52.238;10.716;2022-08-19T15:18:27;24.90;99.90
21417;DHT22;10869;52.238;10.716;2022-08-19T15:24:15;25.00;99.90
21417;DHT22;10869;52.238;10.716;2022-08-19T15:30:05;25.20;99.90
21417;DHT22;10869;52.238;10.716;2022-08-19T15:32:31;25.10;99.90
21417;DHT22;10869;52.238;10.716;2022-08-19T15:38:20;25.00;99.90
21417;DHT22;10869;52.238;10.716;2022-08-19T15:40:50;25.00;99.90
21417;DHT22;10869;52.238;10.716;2022-08-19T15:43:18;25.00;99.90
21417;DHT22;10869;52.238;10.716;2022-08-19T15:49:10;25.00;99.90
21417;DHT22;10869;52.238;10.716;2022-08-19T15:51:37;24.70;99.90
21417;DHT22;10869;52.238;10.716;2022-08-19T15:57:25;24.40;99.90
21417;DHT22;10869;52.238;10.716;2022-08-19T15:59:51;24.30;99.90
21417;DHT22;10869;52.238;10.716;2022-08-19T16:02:36;24.10;99.90
21417;DHT22;10869;52.238;10.716;2022-08-19T16:05:23;23.90;99.90
21417;DHT22;10869;52.238;10.716;2022-08-19T16:11:33;23.80;99.90
21417;DHT22;10869;52.238;10.716;2022-08-19T16:13:59;23.70;99.90
21417;DHT22;10869;52.238;10.716;2022-08-19T16:16:31;23.60;99.90
21417;DHT22;10869;52.238;10.716;2022-08-19T16:18:59;23.60;99.90
21417;DHT22;10869;52.238;10.716;2022-08-19T16:21:27;23.60;99.90
21417;DHT22;10869;52.238;10.716;2022-08-19T16:23:56;23.50;99.90
21417;DHT22;10869;52.238;10.716;2022-08-19T16:26:22;23.50;99.90
21417;DHT22;10869;52.238;10.716;2022-08-19T16:28:49;23.50;99.90
21417;DHT22;10869;52.238;10.716;2022-08-19T16:31:15;23.60;99.90
21417;DHT22;10869;52.238;10.716;2022-08-19T16:33:41;23.60;99.90
21417;DHT22;10869;52.238;10.716;2022-08-19T16:36:07;23.60;99.90
21417;DHT22;10869;52.238;10.716;2022-08-19T16:38:33;23.60;99.90
21417;DHT22;10869;52.238;10.716;2022-08-19T16:41:00;23.60;99.90
21417;DHT22;10869;52.238;10.716;2022-08-19T16:43:27;23.60;99.90
21417;DHT22;10869;52.238;10.716;2022-08-19T16:45:53;23.60;99.90
21417;DHT22;10869;52.238;10.716;2022-08-19T16:48:20;23.50;99.90
21417;DHT22;10869;52.238;10.716;2022-08-19T16:50:47;23.50;99.90
21417;DHT22;10869;52.238;10.716;2022-08-19T16:53:14;23.40;99.90
21417;DHT22;10869;52.238;10.716;2022-08-19T16:55:40;23.40;99.90
21417;DHT22;10869;52.238;10.716;2022-08-19T16:58:05;23.30;99.90
21417;DHT22;10869;52.238;10.716;2022-08-19T17:00:31;23.30;99.90
21417;DHT22;10869;52.238;10.716;2022-08-19T17:03:06;23.30;99.90
21417;DHT22;10869;52.238;10.716;2022-08-19T17:34:03;22.90;99.90
21417;DHT22;10869;52.238;10.716;2022-08-19T17:36:31;22.90;99.90
21417;DHT22;10869;52.238;10.716;2022-08-19T17:38:59;22.80;99.90
21417;DHT22;10869;52.238;10.716;2022-08-19T17:41:26;22.80;99.90
21417;DHT22;10869;52.238;10.716;2022-08-19T17:43:53;22.80;99.90
21417;DHT22;10869;52.238;10.716;2022-08-19T17:46:19;22.80;99.90
21417;DHT22;10869;52.238;10.716;2022-08-19T17:48:47;22.70;99.90
21417;DHT22;10869;52.238;10.716;2022-08-19T17:53:48;22.60;99.90
21417;DHT22;10869;52.238;10.716;2022-08-19T17:56:15;22.60;99.90
21417;DHT22;10869;52.238;10.716;2022-08-19T17:58:41;22.50;99.90
21417;DHT22;10869;52.238;10.716;2022-08-19T18:01:12;22.50;99.90
21417;DHT22;10869;52.238;10.716;2022-08-19T18:03:39;22.40;99.90
21417;DHT22;10869;52.238;10.716;2022-08-19T18:06:05;22.30;99.90
21417;DHT22;10869;52.238;10.716;2022-08-19T18:08:33;22.20;99.90
21417;DHT22;10869;52.238;10.716;2022-08-19T18:14:30;22.00;99.90
21417;DHT22;10869;52.238;10.716;2022-08-19T18:16:59;21.90;99.90
21417;DHT22;10869;52.238;10.716;2022-08-19T18:19:26;21.80;99.90
21417;DHT22;10869;52.238;10.716;2022-08-19T18:27:48;21.50;99.90
21417;DHT22;10869;52.238;10.716;2022-08-19T18:33:36;21.40;99.90
21417;DHT22;10869;52.238;10.716;2022-08-19T18:36:02;21.30;99.90
21417;DHT22;10869;52.238;10.716;2022-08-19T18:41:51;21.10;99.90
21417;DHT22;10869;52.238;10.716;2022-08-19T18:47:57;20.90;99.90
21417;DHT22;10869;52.238;10.716;2022-08-19T18:50:57;20.80;99.90
21417;DHT22;10869;52.238;10.716;2022-08-19T18:56:50;20.60;99.90
21417;DHT22;10869;52.238;10.716;2022-08-19T18:59:22;20.40;99.90
21417;DHT22;10869;52.238;10.716;2022-08-19T19:01:48;20.40;99.90
21417;DHT22;10869;52.238;10.716;2022-08-19T19:07:40;20.40;99.90
21417;DHT22;10869;52.238;10.716;2022-08-19T19:10:15;20.40;99.90
21417;DHT22;10869;52.238;10.716;2022-08-19T19:16:03;20.40;99.90
21417;DHT22;10869;52.238;10.716;2022-08-19T19:21:52;20.30;99.90
21417;DHT22;10869;52.238;10.716;2022-08-19T19:24:23;20.20;99.90
21417;DHT22;10869;52.238;10.716;2022-08-19T19:26:51;20.20;99.90
21417;DHT22;10869;52.238;10.716;2022-08-19T19:29:18;20.20;99.90
21417;DHT22;10869;52.238;10.716;2022-08-19T19:31:45;20.10;99.90
21417;DHT22;10869;52.238;10.716;2022-08-19T19:34:13;20.10;99.90
21417;DHT22;10869;52.238;10.716;2022-08-19T19:36:39;20.00;99.90
21417;DHT22;10869;52.238;10.716;2022-08-19T19:39:06;20.00;99.90
21417;DHT22;10869;52.238;10.716;2022-08-19T19:41:32;19.90;99.90
21417;DHT22;10869;52.238;10.716;2022-08-19T19:44:03;19.80;99.90
21417;DHT22;10869;52.238;10.716;2022-08-19T19:46:30;19.80;99.90
21417;DHT22;10869;52.238;10.716;2022-08-19T19:48:57;19.70;99.90
21417;DHT22;10869;52.238;10.716;2022-08-19T19:51:23;19.70;99.90
21417;DHT22;10869;52.238;10.716;2022-08-19T19:53:53;19.70;99.90
21417;DHT22;10869;52.238;10.716;2022-08-19T19:56:20;19.60;99.90
21417;DHT22;10869;52.238;10.716;2022-08-19T20:02:08;19.60;99.90
21417;DHT22;10869;52.238;10.716;2022-08-19T20:08:01;19.50;99.90
21417;DHT22;10869;52.238;10.716;2022-08-19T20:10:45;19.50;99.90
21417;DHT22;10869;52.238;10.716;2022-08-19T20:13:11;19.50;99.90
21417;DHT22;10869;52.238;10.716;2022-08-19T20:19:01;19.60;99.90
21417;DHT22;10869;52.238;10.716;2022-08-19T20:21:29;19.50;99.90
21417;DHT22;10869;52.238;10.716;2022-08-19T20:24:03;19.50;99.90
21417;DHT22;10869;52.238;10.716;2022-08-19T20:26:29;19.50;99.90
21417;DHT22;10869;52.238;10.716;2022-08-19T20:28:57;19.60;99.90
21417;DHT22;10869;52.238;10.716;2022-08-19T20:44:23;19.60;99.90
21417;DHT22;10869;52.238;10.716;2022-08-19T20:46:49;19.60;99.90
21417;DHT22;10869;52.238;10.716;2022-08-19T20:49:15;19.60;99.90
21417;DHT22;10869;52.238;10.716;2022-08-19T20:52:11;19.60;99.90
21417;DHT22;10869;52.238;10.716;2022-08-19T20:57:34;19.60;99.90
21417;DHT22;10869;52.238;10.716;2022-08-19T21:00:00;19.60;99.90
21417;DHT22;10869;52.238;10.716;2022-08-19T21:02:29;19.60;99.90
21417;DHT22;10869;52.238;10.716;2022-08-19T21:04:55;19.60;99.90
21417;DHT22;10869;52.238;10.716;2022-08-19T21:07:21;19.60;99.90
21417;DHT22;10869;52.238;10.716;2022-08-19T21:09:47;19.60;99.90
21417;DHT22;10869;52.238;10.716;2022-08-19T21:15:35;19.60;99.90
21417;DHT22;10869;52.238;10.716;2022-08-19T21:18:05;19.60;99.90
21417;DHT22;10869;52.238;10.716;2022-08-19T21:20:31;19.60;99.90
21417;DHT22;10869;52.238;10.716;2022-08-19T21:22:57;19.60;99.90
21417;DHT22;10869;52.238;10.716;2022-08-19T21:25:26;19.50;99.90
21417;DHT22;10869;52.238;10.716;2022-08-19T21:27:52;19.50;99.90
21417;DHT22;10869;52.238;10.716;2022-08-19T21:30:18;19.50;99.90
21417;DHT22;10869;52.238;10.716;2022-08-19T21:32:44;19.40;99.90
21417;DHT22;10869;52.238;10.716;2022-08-19T21:35:10;19.40;99.90
21417;DHT22;10869;52.238;10.716;2022-08-19T21:37:35;19.40;99.90
21417;DHT22;10869;52.238;10.716;2022-08-19T21:40:05;19.30;99.90
21417;DHT22;10869;52.238;10.716;2022-08-19T21:42:31;19.20;99.90
21417;DHT22;10869;52.238;10.716;2022-08-19T21:44:57;19.10;99.90
21417;DHT22;10869;52.238;10.716;2022-08-19T21:47:22;19.10;99.90
21417;DHT22;10869;52.238;10.716;2022-08-19T21:49:48;19.10;99.90
21417;DHT22;10869;52.238;10.716;2022-08-19T21:52:21;19.00;99.90
21417;DHT22;10869;52.238;10.716;2022-08-19T21:54:47;18.90;99.90
21417;DHT22;10869;52.238;10.716;2022-08-19T21:57:12;18.90;99.90
21417;DHT22;10869;52.238;10.716;2022-08-19T21:59:38;18.80;99.90
21417;DHT22;10869;52.238;10.716;2022-08-19T22:02:04;18.80;99.90
21417;DHT22;10869;52.238;10.716;2022-08-19T22:04:30;18.70;99.90
21417;DHT22;10869;52.238;10.716;2022-08-19T22:06:55;18.70;99.90
21417;DHT22;10869;52.238;10.716;2022-08-19T22:09:21;18.70;99.90
21417;DHT22;10869;52.238;10.716;2022-08-19T22:11:47;18.70;99.90
21417;DHT22;10869;52.238;10.716;2022-08-19T22:14:13;18.60;99.90
21417;DHT22;10869;52.238;10.716;2022-08-19T22:16:39;18.60;99.90
21417;DHT22;10869;52.238;10.716;2022-08-19T22:19:05;18.70;99.90
21417;DHT22;10869;52.238;10.716;2022-08-19T22:21:31;18.60;99.90
21417;DHT22;10869;52.238;10.716;2022-08-19T22:23:57;18.70;99.90
21417;DHT22;10869;52.238;10.716;2022-08-19T22:26:23;18.70;99.90
21417;DHT22;10869;52.238;10.716;2022-08-19T22:28:49;18.60;99.90
21417;DHT22;10869;52.238;10.716;2022-08-19T22:31:14;18.70;99.90
21417;DHT22;10869;52.238;10.716;2022-08-19T22:33:40;18.60;99.90
21417;DHT22;10869;52.238;10.716;2022-08-19T22:36:07;18.70;99.90
21417;DHT22;10869;52.238;10.716;2022-08-19T22:38:33;18.60;99.90
21417;DHT22;10869;52.238;10.716;2022-08-19T22:40:59;18.70;99.90
21417;DHT22;10869;52.238;10.716;2022-08-19T22:43:28;18.70;99.90
21417;DHT22;10869;52.238;10.716;2022-08-19T22:45:58;18.60;99.90
21417;DHT22;10869;52.238;10.716;2022-08-19T22:48:27;18.60;99.90
21417;DHT22;10869;52.238;10.716;2022-08-19T22:50:54;18.60;99.90
21417;DHT22;10869;52.238;10.716;2022-08-19T22:53:41;18.60;99.90
21417;DHT22;10869;52.238;10.716;2022-08-19T22:56:09;18.60;99.90
21417;DHT22;10869;52.238;10.716;2022-08-19T22:58:35;18.60;99.90
